createdAt,value
2022-09-03T00:00:28.255Z,3.72
2022-09-03T00:03:12.103Z,2.67
2022-09-03T00:05:52.250Z,2.60
2022-09-03T00:08:28.075Z,2.17
2022-09-03T00:11:14.218Z,4.97
2022-09-03T00:14:12.290Z,3.42
2022-09-03T00:16:59.332Z,3.00
2022-09-03T00:19:38.234Z,3.67
2022-09-03T00:22:34.952Z,4.57
2022-09-03T00:25:11.259Z,2.22
2022-09-03T00:27:39.305Z,3.25
2022-09-03T00:30:21.228Z,2.97
2022-09-03T00:33:01.732Z,3.20
2022-09-03T00:36:08.233Z,2.72
2022-09-03T00:38:35.105Z,4.70
2022-09-03T00:41:52.257Z,2.55
2022-09-03T00:44:25.316Z,2.63
2022-09-03T00:47:23.331Z,4.50
2022-09-03T00:50:47.247Z,3.60
2022-09-03T00:53:32.770Z,2.78
2022-09-03T00:56:27.247Z,3.45
2022-09-03T00:59:09.011Z,6.68
2022-09-03T01:02:30.314Z,6.68
2022-09-03T01:05:28.275Z,8.10
2022-09-03T01:08:20.275Z,6.40
2022-09-03T01:11:35.286Z,7.10
2022-09-03T01:14:39.290Z,7.60
2022-09-03T01:17:38.460Z,12.23
2022-09-03T01:20:15.285Z,16.15
2022-09-03T01:22:54.127Z,12.75
2022-09-03T01:25:59.299Z,11.60
2022-09-03T01:29:07.292Z,15.80
2022-09-03T01:32:08.302Z,11.60
2022-09-03T01:35:13.093Z,18.95
2022-09-03T01:38:07.308Z,17.70
2022-09-03T01:41:22.182Z,16.85
2022-09-03T01:44:22.325Z,15.30
2022-09-03T01:46:57.273Z,17.80
2022-09-03T01:50:29.315Z,16.08
2022-09-03T01:53:25.353Z,18.02
2022-09-03T01:56:19.692Z,18.85
2022-09-03T01:59:24.308Z,15.52
2022-09-03T02:01:56.112Z,13.95
2022-09-03T02:04:32.322Z,13.32
2022-09-03T02:07:00.735Z,14.73
2022-09-03T02:09:34.307Z,17.85
2022-09-03T02:12:09.045Z,16.85
2022-09-03T02:14:42.298Z,14.90
2022-09-03T02:17:15.327Z,13.77
2022-09-03T02:19:48.307Z,13.93
2022-09-03T02:22:15.225Z,14.75
2022-09-03T02:24:48.329Z,10.05
2022-09-03T02:27:21.308Z,14.18
2022-09-03T02:29:55.011Z,10.40
2022-09-03T02:32:28.328Z,9.15
2022-09-03T02:34:55.193Z,10.45
2022-09-03T02:37:29.354Z,9.25
2022-09-03T02:39:56.285Z,12.00
2022-09-03T02:42:23.202Z,10.65
2022-09-03T02:45:10.342Z,8.25
2022-09-03T02:47:37.247Z,9.30
2022-09-03T02:50:11.342Z,8.45
2022-09-03T02:52:38.255Z,6.03
2022-09-03T02:55:12.352Z,3.35
2022-09-03T02:57:39.257Z,4.03
2022-09-03T03:00:13.362Z,6.50
2022-09-03T03:02:40.332Z,5.43
2022-09-03T03:05:14.373Z,4.63
2022-09-03T03:07:41.366Z,6.00
2022-09-03T03:10:09.129Z,4.97
2022-09-03T03:12:42.370Z,5.85
2022-09-03T03:15:09.692Z,5.95
2022-09-03T03:17:43.357Z,4.60
2022-09-03T03:20:10.802Z,6.80
2022-09-03T03:22:37.722Z,6.60
2022-09-03T03:25:11.357Z,7.20
2022-09-03T03:27:44.372Z,7.10
2022-09-03T03:30:12.244Z,5.13
2022-09-03T03:32:46.369Z,6.15
2022-09-03T03:35:13.269Z,8.80
2022-09-03T03:37:40.242Z,5.60
2022-09-03T03:40:14.356Z,6.18
2022-09-03T03:42:41.944Z,6.00
2022-09-03T03:45:16.397Z,5.63
2022-09-03T03:47:43.339Z,8.30
2022-09-03T03:50:10.451Z,6.05
2022-09-03T03:52:43.392Z,5.10
2022-09-03T03:55:10.311Z,7.43
2022-09-03T03:57:43.414Z,7.35
2022-09-03T04:00:10.897Z,7.05
2022-09-03T04:02:44.445Z,8.88
2022-09-03T04:05:11.472Z,6.10
2022-09-03T04:07:38.500Z,6.88
2022-09-03T04:10:12.402Z,8.40
2022-09-03T04:12:39.299Z,7.25
2022-09-03T04:15:06.665Z,6.32
2022-09-03T04:17:40.396Z,6.85
2022-09-03T04:20:07.611Z,7.78
2022-09-03T04:22:34.518Z,7.25
2022-09-03T04:25:08.392Z,9.82
2022-09-03T04:27:35.292Z,8.77
2022-09-03T04:30:08.419Z,8.18
2022-09-03T04:32:42.444Z,9.85
2022-09-03T04:35:16.429Z,8.77
2022-09-03T04:37:43.337Z,14.20
2022-09-03T04:40:10.692Z,8.60
2022-09-03T04:42:44.444Z,11.68
2022-09-03T04:45:11.421Z,8.95
2022-09-03T04:47:44.443Z,7.53
2022-09-03T04:50:11.351Z,6.95
2022-09-03T04:52:44.469Z,6.85
2022-09-03T04:55:11.383Z,5.35
2022-09-03T04:57:44.449Z,6.20
2022-09-03T05:00:18.459Z,6.88
2022-09-03T05:02:46.302Z,6.15
2022-09-03T05:05:20.459Z,4.63
2022-09-03T05:07:47.332Z,3.55
2022-09-03T05:10:14.403Z,3.97
2022-09-03T05:12:47.482Z,3.75
2022-09-03T05:15:21.444Z,3.67
2022-09-03T05:17:48.361Z,4.13
2022-09-03T05:20:21.450Z,3.05
2022-09-03T05:22:49.222Z,3.72
2022-09-03T05:25:22.466Z,3.67
2022-09-03T05:27:55.465Z,3.13
2022-09-03T05:30:22.406Z,3.60
2022-09-03T05:32:49.575Z,5.00
2022-09-03T05:35:26.080Z,4.10
2022-09-03T05:38:03.459Z,4.78
2022-09-03T05:40:30.374Z,3.60
2022-09-03T05:43:08.417Z,2.75
2022-09-03T05:45:42.501Z,4.65
2022-09-03T05:48:09.389Z,5.30
2022-09-03T05:50:42.462Z,3.42
2022-09-03T05:53:09.344Z,3.50
2022-09-03T05:55:42.439Z,4.38
2022-09-03T05:58:09.310Z,4.65
2022-09-03T06:00:42.470Z,3.90
2022-09-03T06:03:09.496Z,3.88
2022-09-03T06:05:43.503Z,4.10
2022-09-03T06:08:19.489Z,4.95
2022-09-03T06:10:46.457Z,3.63
2022-09-03T06:13:13.395Z,4.95
2022-09-03T06:15:46.442Z,3.85
2022-09-03T06:18:13.394Z,6.03
2022-09-03T06:20:46.526Z,4.75
2022-09-03T06:23:19.499Z,5.20
2022-09-03T06:25:52.496Z,5.00
2022-09-03T06:28:20.276Z,5.78
2022-09-03T06:30:56.495Z,4.15
2022-09-03T06:33:23.498Z,4.78
2022-09-03T06:35:54.797Z,4.75
2022-09-03T06:38:28.504Z,7.68
2022-09-03T06:41:00.037Z,8.50
2022-09-03T06:43:26.937Z,7.30
2022-09-03T06:46:12.545Z,5.55
2022-09-03T06:48:39.900Z,4.90
2022-09-03T06:51:35.580Z,5.22
2022-09-03T06:54:14.494Z,6.68
2022-09-03T06:56:41.731Z,5.07
2022-09-03T06:59:20.529Z,4.40
2022-09-03T07:01:53.583Z,4.65
2022-09-03T07:04:27.561Z,5.50
2022-09-03T07:07:02.554Z,6.13
2022-09-03T07:09:29.462Z,7.70
2022-09-03T07:12:02.515Z,7.93
2022-09-03T07:14:29.770Z,9.80
2022-09-03T07:16:56.736Z,7.30
2022-09-03T07:19:30.532Z,6.55
2022-09-03T07:21:57.394Z,6.97
2022-09-03T07:24:30.551Z,6.63
2022-09-03T07:26:57.505Z,7.32
2022-09-03T07:29:30.526Z,6.15
2022-09-03T07:31:57.502Z,6.80
2022-09-03T07:34:25.545Z,7.72
2022-09-03T07:36:59.546Z,8.15
2022-09-03T07:39:33.591Z,6.90
2022-09-03T07:42:06.602Z,6.68
2022-09-03T07:44:33.459Z,6.75
2022-09-03T07:47:06.544Z,8.18
2022-09-03T07:49:33.485Z,12.75
2022-09-03T07:52:06.529Z,8.70
2022-09-03T07:54:38.927Z,7.53
2022-09-03T07:57:12.572Z,8.00
2022-09-03T07:59:39.486Z,8.65
2022-09-03T08:02:19.559Z,7.85
2022-09-03T08:04:52.547Z,7.70
2022-09-03T08:07:19.456Z,7.63
2022-09-03T08:09:46.349Z,9.02
2022-09-03T08:12:19.549Z,8.60
2022-09-03T08:14:52.581Z,9.15
2022-09-03T08:17:19.464Z,9.10
2022-09-03T08:19:52.553Z,9.27
2022-09-03T08:22:19.444Z,10.13
2022-09-03T08:24:52.571Z,7.50
2022-09-03T08:27:25.591Z,8.48
2022-09-03T08:29:52.461Z,7.47
2022-09-03T08:32:27.610Z,6.55
2022-09-03T08:34:54.504Z,8.50
2022-09-03T08:37:27.606Z,8.35
2022-09-03T08:39:54.837Z,7.22
2022-09-03T08:43:06.680Z,9.55
2022-09-03T08:45:36.594Z,5.85
2022-09-03T08:48:16.589Z,7.82
2022-09-03T08:50:45.830Z,7.13
2022-09-03T08:53:36.607Z,6.38
2022-09-03T08:56:08.213Z,5.55
2022-09-03T08:58:42.567Z,7.72
2022-09-03T09:01:43.569Z,7.45
2022-09-03T09:05:16.615Z,8.70
2022-09-03T09:07:51.458Z,8.75
2022-09-03T09:10:44.606Z,6.18
2022-09-03T09:13:50.642Z,9.07
2022-09-03T09:17:16.382Z,7.10
2022-09-03T09:20:03.648Z,6.35
2022-09-03T09:22:39.147Z,5.88
2022-09-03T09:25:24.660Z,5.97
2022-09-03T09:28:03.162Z,6.80
2022-09-03T09:30:37.630Z,5.65
2022-09-03T09:33:04.519Z,7.40
2022-09-03T09:35:31.422Z,5.85
2022-09-03T09:38:05.831Z,5.38
2022-09-03T09:40:39.537Z,6.13
2022-09-03T09:43:20.623Z,5.50
2022-09-03T09:45:49.779Z,5.40
2022-09-03T09:48:34.627Z,6.38
2022-09-03T09:51:12.962Z,5.40
2022-09-03T09:53:47.655Z,6.30
2022-09-03T09:56:25.297Z,5.28
2022-09-03T09:59:16.649Z,4.90
2022-09-03T10:01:44.954Z,5.47
2022-09-03T10:04:13.529Z,5.38
2022-09-03T10:06:46.677Z,5.75
2022-09-03T10:09:19.507Z,4.80
2022-09-03T10:11:55.680Z,5.55
2022-09-03T10:14:29.200Z,4.70
2022-09-03T10:17:10.629Z,5.75
2022-09-03T10:20:24.666Z,6.20
2022-09-03T10:22:57.618Z,5.00
2022-09-03T10:25:35.697Z,4.10
2022-09-03T10:28:02.638Z,6.80
2022-09-03T10:30:30.162Z,4.38
2022-09-03T10:33:18.659Z,5.10
2022-09-03T10:36:05.355Z,5.25
2022-09-03T10:38:41.654Z,4.97
2022-09-03T10:41:48.700Z,5.65
2022-09-03T10:45:08.681Z,9.25
2022-09-03T10:48:34.671Z,4.85
2022-09-03T10:51:13.638Z,5.22
2022-09-03T10:54:20.669Z,5.55
2022-09-03T10:57:09.379Z,7.65
2022-09-03T11:00:01.672Z,4.97
2022-09-03T11:02:56.763Z,4.45
2022-09-03T11:05:31.153Z,5.63
2022-09-03T11:08:31.680Z,4.55
2022-09-03T11:11:40.794Z,5.85
2022-09-03T11:14:16.714Z,5.85
2022-09-03T11:16:55.850Z,6.03
2022-09-03T11:19:50.724Z,8.40
2022-09-03T11:22:17.599Z,5.60
2022-09-03T11:25:01.735Z,6.97
2022-09-03T11:28:00.785Z,7.00
2022-09-03T11:30:58.874Z,5.68
2022-09-03T11:33:32.711Z,6.72
2022-09-03T11:36:00.947Z,5.05
2022-09-03T11:38:37.784Z,6.00
2022-09-03T11:41:30.730Z,5.13
2022-09-03T11:44:04.678Z,7.05
2022-09-03T11:46:31.748Z,5.90
2022-09-03T11:49:18.734Z,4.97
2022-09-03T11:52:05.762Z,7.00
2022-09-03T11:54:39.732Z,5.55
2022-09-03T11:57:22.747Z,5.18
2022-09-03T11:59:49.634Z,4.55
2022-09-03T12:02:38.828Z,5.38
2022-09-03T12:05:28.379Z,6.18
2022-09-03T12:08:45.770Z,6.80
2022-09-03T12:11:34.407Z,3.58
2022-09-03T12:14:42.772Z,4.63
2022-09-03T12:17:26.737Z,4.22
2022-09-03T12:19:58.207Z,4.20
2022-09-03T12:22:34.760Z,6.07
2022-09-03T12:25:29.007Z,4.28
2022-09-03T12:28:02.759Z,3.80
2022-09-03T12:30:29.806Z,3.30
2022-09-03T12:33:15.839Z,4.05
2022-09-03T12:35:58.922Z,4.05
2022-09-03T12:38:54.736Z,6.95
2022-09-03T12:41:30.114Z,10.95
2022-09-03T12:44:06.791Z,10.43
2022-09-03T12:46:34.570Z,2.97
2022-09-03T12:49:30.210Z,3.60
2022-09-03T12:52:06.375Z,3.17
2022-09-03T12:54:50.349Z,3.10
2022-09-03T12:57:28.775Z,4.75
2022-09-03T12:59:58.811Z,4.07
2022-09-03T13:02:43.772Z,3.72
2022-09-03T13:05:18.342Z,4.25
2022-09-03T13:08:02.838Z,3.33
2022-09-03T13:10:38.775Z,2.90
2022-09-03T13:13:26.005Z,3.53
2022-09-03T13:16:43.851Z,4.40
2022-09-03T13:19:39.331Z,3.20
2022-09-03T13:22:31.814Z,3.10
2022-09-03T13:25:15.906Z,2.60
2022-09-03T13:28:17.806Z,4.43
2022-09-03T13:31:27.803Z,3.60
2022-09-03T13:34:17.954Z,3.70
2022-09-03T13:37:05.800Z,4.50
2022-09-03T13:39:41.296Z,3.20
2022-09-03T13:42:26.812Z,3.70
2022-09-03T13:45:46.869Z,3.75
2022-09-03T13:48:47.821Z,2.72
2022-09-03T13:51:44.820Z,3.40
2022-09-03T13:58:00.995Z,4.80
2022-09-03T14:01:00.856Z,4.20
2022-09-03T14:03:48.735Z,3.78
2022-09-03T14:06:40.177Z,3.83
2022-09-03T14:09:35.856Z,4.53
2022-09-03T14:12:29.077Z,5.50
2022-09-03T14:15:08.834Z,5.32
2022-09-03T14:18:13.920Z,3.47
2022-09-03T14:21:11.852Z,4.05
2022-09-03T14:23:50.700Z,4.07
2022-09-03T14:26:42.847Z,4.03
2022-09-03T14:29:12.705Z,4.28
2022-09-03T14:32:29.863Z,5.30
2022-09-03T14:35:21.845Z,4.55
2022-09-03T14:38:28.850Z,3.70
2022-09-03T14:42:01.942Z,4.10
2022-09-03T14:44:39.839Z,6.30
2022-09-03T14:48:02.852Z,4.47
2022-09-03T14:50:41.854Z,3.65
2022-09-03T14:53:36.873Z,5.28
2022-09-03T14:56:55.892Z,4.10
2022-09-03T14:59:50.060Z,4.85
2022-09-03T15:03:24.902Z,3.83
2022-09-03T15:06:15.011Z,4.22
2022-09-03T15:09:01.885Z,3.75
2022-09-03T15:11:34.335Z,4.78
2022-09-03T15:14:21.880Z,3.40
2022-09-03T15:17:26.868Z,4.13
2022-09-03T15:20:24.920Z,3.45
2022-09-03T15:23:12.880Z,3.70
2022-09-03T15:26:20.904Z,22.05
2022-09-03T15:29:29.923Z,8.10
2022-09-03T15:32:33.731Z,3.58
2022-09-03T15:35:08.784Z,3.60
2022-09-03T15:38:11.909Z,3.60
2022-09-03T15:40:47.968Z,3.20
2022-09-03T15:43:38.023Z,3.88
2022-09-03T15:47:01.120Z,3.10
2022-09-03T15:50:33.901Z,4.10
2022-09-03T15:53:18.621Z,3.40
2022-09-03T15:55:51.905Z,4.10
2022-09-03T15:58:43.920Z,4.30
2022-09-03T16:01:51.206Z,3.78
2022-09-03T16:05:01.920Z,5.47
2022-09-03T16:07:44.923Z,4.70
2022-09-03T16:10:24.633Z,3.88
2022-09-03T16:13:40.935Z,3.80
2022-09-03T16:16:54.893Z,4.65
2022-09-03T16:19:55.964Z,3.95
2022-09-03T16:22:34.090Z,6.90
2022-09-03T16:25:25.956Z,3.53
2022-09-03T16:28:14.885Z,4.30
2022-09-03T16:31:22.061Z,4.00
2022-09-03T16:34:18.819Z,3.60
2022-09-03T16:37:30.947Z,4.13
2022-09-03T16:40:42.951Z,3.72
2022-09-03T16:43:40.302Z,2.90
2022-09-03T16:47:06.987Z,4.43
2022-09-03T16:50:10.972Z,14.90
2022-09-03T16:53:19.942Z,14.38
2022-09-03T16:56:40.958Z,4.65
2022-09-03T16:59:55.272Z,3.67
2022-09-03T17:03:07.258Z,3.25
2022-09-03T17:06:10.981Z,4.28
2022-09-03T17:09:00.507Z,10.10
2022-09-03T17:11:54.971Z,8.25
2022-09-03T17:14:40.970Z,7.70
2022-09-03T17:17:08.137Z,5.50
2022-09-03T17:19:59.953Z,4.18
2022-09-03T17:23:18.006Z,3.67
2022-09-03T17:26:23.973Z,2.95
2022-09-03T17:29:26.697Z,2.83
2022-09-03T17:32:33.989Z,3.05
2022-09-03T17:35:57.068Z,4.32
2022-09-03T17:38:48.003Z,6.60
2022-09-03T17:41:52.083Z,3.65
2022-09-03T17:44:45.538Z,3.30
2022-09-03T17:47:40.019Z,3.20
2022-09-03T17:50:18.793Z,3.55
2022-09-03T17:53:18.032Z,3.25
2022-09-03T17:56:18.041Z,3.42
2022-09-03T17:58:51.851Z,5.00
2022-09-03T18:01:30.086Z,3.13
2022-09-03T18:04:12.828Z,2.90
2022-09-03T18:07:20.005Z,2.95
2022-09-03T18:10:08.998Z,3.50
2022-09-03T18:13:04.290Z,3.55
2022-09-03T18:15:43.040Z,3.72
2022-09-03T18:18:33.319Z,3.92
2022-09-03T18:21:29.320Z,3.30
2022-09-03T18:24:35.000Z,3.42
2022-09-03T18:27:08.107Z,4.07
2022-09-03T18:30:00.017Z,4.50
2022-09-03T18:32:26.964Z,3.55
2022-09-03T18:34:53.877Z,3.42
2022-09-03T18:37:30.035Z,4.43
2022-09-03T18:39:57.011Z,4.60
2022-09-03T18:42:44.060Z,3.85
2022-09-03T18:45:56.360Z,4.10
2022-09-03T18:49:01.139Z,3.72
2022-09-03T18:51:39.967Z,4.70
2022-09-03T18:55:08.617Z,3.22
2022-09-03T18:58:03.071Z,3.70
2022-09-03T19:00:37.052Z,4.35
2022-09-03T19:03:35.864Z,3.97
2022-09-03T19:06:45.094Z,4.53
2022-09-03T19:10:10.902Z,4.80
2022-09-03T19:13:01.068Z,4.75
2022-09-03T19:15:37.185Z,3.83
2022-09-03T19:18:52.077Z,3.65
2022-09-03T19:21:39.501Z,5.38
2022-09-03T19:24:13.082Z,4.10
2022-09-03T19:27:23.557Z,4.97
2022-09-03T19:30:12.040Z,4.35
2022-09-03T19:33:20.083Z,5.00
2022-09-03T19:36:37.078Z,4.53
2022-09-03T19:39:50.177Z,4.20
2022-09-03T19:42:44.206Z,6.72
2022-09-03T19:45:41.056Z,6.22
2022-09-03T19:48:25.928Z,5.45
2022-09-03T19:51:22.101Z,5.10
2022-09-03T19:53:49.057Z,4.78
2022-09-03T19:56:32.090Z,4.07
2022-09-03T19:59:02.842Z,3.70
2022-09-03T20:01:44.157Z,4.90
2022-09-03T20:04:15.422Z,4.68
2022-09-03T20:06:49.099Z,4.20
2022-09-03T20:09:17.303Z,4.72
2022-09-03T20:11:46.882Z,4.28
2022-09-03T20:14:22.112Z,4.30
2022-09-03T20:17:13.031Z,4.28
2022-09-03T20:20:08.174Z,3.80
2022-09-03T20:22:57.668Z,4.10
2022-09-03T20:25:41.114Z,5.03
2022-09-03T20:28:43.192Z,4.65
2022-09-03T20:31:28.720Z,4.53
2022-09-03T20:34:17.107Z,6.88
2022-09-03T20:37:13.175Z,4.03
2022-09-03T20:39:55.168Z,4.57
2022-09-03T20:42:40.150Z,3.80
2022-09-03T20:45:18.964Z,5.40
2022-09-03T20:48:02.122Z,4.10
2022-09-03T20:50:31.663Z,5.57
2022-09-03T20:53:40.131Z,6.63
2022-09-03T20:56:53.127Z,4.50
2022-09-03T21:00:27.140Z,5.55
2022-09-03T21:03:35.395Z,4.43
2022-09-03T21:06:41.147Z,6.10
2022-09-03T21:09:30.106Z,4.68
2022-09-03T21:12:12.119Z,4.30
2022-09-03T21:14:41.359Z,4.82
2022-09-03T21:17:36.148Z,4.85
2022-09-03T21:21:02.179Z,5.40
2022-09-03T21:23:43.160Z,6.90
2022-09-03T21:26:43.138Z,6.30
2022-09-03T21:29:34.408Z,7.22
2022-09-03T21:32:23.162Z,4.97
2022-09-03T21:35:30.185Z,5.75
2022-09-03T21:38:16.680Z,5.95
2022-09-03T21:41:12.178Z,5.57
2022-09-03T21:44:05.160Z,6.50
2022-09-03T21:46:40.551Z,5.32
2022-09-03T21:49:16.172Z,7.75
2022-09-03T21:51:54.863Z,5.50
2022-09-03T21:54:38.175Z,6.53
2022-09-03T21:57:23.735Z,5.75
2022-09-03T22:00:18.189Z,6.18
2022-09-03T22:02:46.393Z,6.40
2022-09-03T22:05:16.726Z,6.05
2022-09-03T22:07:56.187Z,5.50
2022-09-03T22:11:11.220Z,5.93
2022-09-03T22:14:09.414Z,5.07
2022-09-03T22:16:58.275Z,6.05
2022-09-03T22:19:25.523Z,5.43
2022-09-03T22:22:05.197Z,5.53
2022-09-03T22:25:08.810Z,4.72
2022-09-03T22:28:01.190Z,5.53
2022-09-03T22:30:45.337Z,6.38
2022-09-03T22:33:25.230Z,5.40
2022-09-03T22:36:14.880Z,5.03
2022-09-03T22:38:49.192Z,5.63
2022-09-03T22:41:39.207Z,5.30
2022-09-03T22:44:21.260Z,7.00
2022-09-03T22:47:09.668Z,5.82
2022-09-03T22:50:00.216Z,6.32
2022-09-03T22:52:58.217Z,5.28
2022-09-03T22:55:32.237Z,5.50
2022-09-03T22:58:30.622Z,5.53
2022-09-03T23:01:12.297Z,5.55
2022-09-03T23:04:00.247Z,6.95
2022-09-03T23:06:32.465Z,5.80
2022-09-03T23:09:20.215Z,6.28
2022-09-03T23:11:58.058Z,5.35
2022-09-03T23:14:40.247Z,5.20
2022-09-03T23:17:13.477Z,5.55
2022-09-03T23:19:53.279Z,5.88
2022-09-03T23:22:29.824Z,7.25
2022-09-03T23:25:26.257Z,6.18
2022-09-03T23:28:13.962Z,6.80
2022-09-03T23:30:47.241Z,6.93
2022-09-03T23:33:14.146Z,5.05
2022-09-03T23:35:55.218Z,5.78
2022-09-03T23:38:36.371Z,5.93
2022-09-03T23:41:13.316Z,6.80
2022-09-03T23:44:43.411Z,6.20
2022-09-03T23:47:50.264Z,5.68
2022-09-03T23:50:35.341Z,5.53
2022-09-03T23:53:45.244Z,5.53
2022-09-03T23:57:03.214Z,5.90
